Terminal Aerodrome Forecast
Issued by NWS Boston, MA

Home | Current Version | Previous Version | Text Only | Print | Product List | Glossary On
Versions: 1 2 3 4 5 6 7 8 9 10 11 12 13 14 15 16 17 18 19 20 21 22 23 24 25
000
FTUS41 KBOX 300841 AAC
TAFBOS
TAF AMD
KBOS 300841Z 3009/3112 33004KT P6SM SCT150
     FM301500 09008KT P6SM SCT200
     FM301800 12010KT P6SM BKN200
     FM310200 16004KT P6SM BKN090
     FM310600 VRB03KT P6SM VCSH OVC050=

USA.gov is the U.S. government's official web portal to all federal, state and local government web resources and services.